Time;durP1;ratioP1;P1;durP2;ratioP2;P2;SDS_P1;SDS_P2;PMS_P1;PMS_P2;Temp;Humidity;BMP_temperature;BMP_pressure;BME280_temperature;BME280_humidity;BME280_pressure;Samples;Min_cycle;Max_cycle;Signal;HPM_P1;HPM_P2
2021/09/07 00:01:20;;;;;;;16.90;12.13;;;;;;;;;;5031340;28;20061;-84
2021/09/07 00:03:48;;;;;;;15.90;12.30;;;;;;;;;;5031042;28;20050;-86
2021/09/07 00:06:17;;;;;;;17.40;12.68;;;;;;;;;;5031742;28;20068;-84
2021/09/07 00:08:44;;;;;;;18.45;13.38;;;;;;;;;;5031626;28;20056;-84
2021/09/07 00:11:11;;;;;;;14.77;11.20;;;;;;;;;;5030791;28;20057;-84
2021/09/07 00:13:38;;;;;;;16.60;12.30;;;;;;;;;;5031127;28;20462;-84
2021/09/07 00:16:05;;;;;;;18.80;13.27;;;;;;;;;;5035182;28;20060;-84
2021/09/07 00:18:32;;;;;;;16.67;11.98;;;;;;;;;;5038076;28;20072;-84
2021/09/07 00:21:01;;;;;;;17.70;13.15;;;;;;;;;;5037455;28;20037;-84
2021/09/07 00:23:27;;;;;;;17.15;13.25;;;;;;;;;;5037930;28;20038;-85
2021/09/07 00:25:54;;;;;;;17.90;13.85;;;;;;;;;;5037979;28;20065;-85
2021/09/07 00:28:21;;;;;;;17.98;13.25;;;;;;;;;;5037838;28;20037;-85
2021/09/07 00:30:47;;;;;;;16.05;13.98;;;;;;;;;;5035634;28;20050;-85
2021/09/07 00:33:14;;;;;;;17.70;12.98;;;;;;;;;;5034779;28;20053;-86
2021/09/07 00:35:41;;;;;;;17.17;13.23;;;;;;;;;;5038205;28;20057;-84
2021/09/07 00:38:10;;;;;;;19.17;13.60;;;;;;;;;;5037886;28;20033;-85
2021/09/07 00:40:37;;;;;;;18.00;13.60;;;;;;;;;;5037100;28;20062;-84
2021/09/07 00:43:04;;;;;;;17.42;13.25;;;;;;;;;;5032888;28;20052;-85
2021/09/07 00:45:31;;;;;;;24.33;19.15;;;;;;;;;;5031771;28;20157;-85
2021/09/07 00:47:58;;;;;;;21.05;16.13;;;;;;;;;;5017471;28;20085;-85
2021/09/07 00:50:25;;;;;;;19.20;13.88;;;;;;;;;;5013135;28;20054;-84
2021/09/07 00:52:52;;;;;;;16.80;12.70;;;;;;;;;;5013350;28;20119;-84
2021/09/07 00:55:21;;;;;;;17.05;13.40;;;;;;;;;;5014271;28;20149;-84
2021/09/07 00:57:50;;;;;;;21.20;15.25;;;;;;;;;;5014713;28;20191;-84
2021/09/07 01:00:17;;;;;;;16.08;12.43;;;;;;;;;;5014877;28;20046;-85
2021/09/07 01:02:44;;;;;;;16.67;12.80;;;;;;;;;;5016639;28;20049;-85
2021/09/07 01:05:12;;;;;;;16.33;12.52;;;;;;;;;;5014165;28;20494;-85
2021/09/07 01:07:39;;;;;;;16.65;13.02;;;;;;;;;;5013723;28;20087;-85
2021/09/07 01:10:08;;;;;;;16.75;12.85;;;;;;;;;;5012881;28;20181;-85
2021/09/07 01:12:36;;;;;;;15.82;11.40;;;;;;;;;;5013711;28;20129;-85
2021/09/07 01:15:04;;;;;;;14.52;12.18;;;;;;;;;;5013743;28;20069;-84
2021/09/07 01:17:31;;;;;;;15.98;12.02;;;;;;;;;;5014150;28;20073;-85
2021/09/07 01:19:58;;;;;;;18.30;11.88;;;;;;;;;;5012888;28;20089;-85
2021/09/07 01:22:25;;;;;;;18.50;12.02;;;;;;;;;;5013687;28;20093;-84
2021/09/07 01:24:55;;;;;;;16.30;12.43;;;;;;;;;;5014688;28;20084;-84
2021/09/07 01:27:22;;;;;;;;;;;;;;;;;;5014893;28;20085;-84
2021/09/07 01:29:49;;;;;;;16.48;12.50;;;;;;;;;;5014282;28;19957;-84
2021/09/07 01:32:18;;;;;;;16.58;11.85;;;;;;;;;;5013893;28;20125;-85
2021/09/07 01:34:45;;;;;;;15.95;12.10;;;;;;;;;;5014457;28;20129;-84
2021/09/07 01:37:12;;;;;;;16.25;11.40;;;;;;;;;;5014549;28;20049;-84
2021/09/07 01:39:39;;;;;;;17.15;12.88;;;;;;;;;;5013921;28;20050;-85
2021/09/07 01:42:08;;;;;;;18.95;12.68;;;;;;;;;;5012538;28;20133;-84
2021/09/07 01:44:39;;;;;;;18.80;13.20;;;;;;;;;;5016246;28;20101;-84
2021/09/07 01:47:09;;;;;;;;;;;;;;;;;;5023701;28;20050;-84
2021/09/07 01:49:37;;;;;;;16.63;12.45;;;;;;;;;;5022813;28;19925;-84
2021/09/07 01:52:12;;;;;;;17.00;13.07;;;;;;;;;;5017004;28;20515;-85
2021/09/07 01:54:44;;;;;;;16.83;12.68;;;;;;;;;;5014705;28;20070;-84
2021/09/07 01:57:13;;;;;;;15.90;12.40;;;;;;;;;;5013364;28;20046;-85
2021/09/07 01:59:40;;;;;;;17.23;12.60;;;;;;;;;;5013532;28;20097;-85
2021/09/07 02:02:07;;;;;;;16.65;12.48;;;;;;;;;;5012168;28;20279;-85
2021/09/07 02:04:34;;;;;;;16.48;13.05;;;;;;;;;;5012127;28;20050;-84
2021/09/07 02:07:01;;;;;;;17.52;13.80;;;;;;;;;;5016669;28;20120;-85
2021/09/07 02:09:27;;;;;;;16.20;12.32;;;;;;;;;;5015649;28;20050;-85
2021/09/07 02:11:54;;;;;;;17.60;12.70;;;;;;;;;;5015373;28;20422;-85
2021/09/07 02:14:23;;;;;;;16.83;11.82;;;;;;;;;;5033470;28;20054;-85
2021/09/07 02:16:50;;;;;;;16.52;12.55;;;;;;;;;;5027038;28;20049;-84
2021/09/07 02:19:17;;;;;;;15.30;12.50;;;;;;;;;;5014612;28;20057;-85
2021/09/07 02:21:43;;;;;;;16.17;12.40;;;;;;;;;;5013603;28;20130;-85
2021/09/07 02:24:10;;;;;;;20.55;12.85;;;;;;;;;;5014748;28;20503;-85
2021/09/07 02:26:37;;;;;;;17.40;12.38;;;;;;;;;;5014206;28;20046;-85
2021/09/07 02:29:04;;;;;;;16.88;12.27;;;;;;;;;;5014477;28;20046;-85
2021/09/07 02:31:32;;;;;;;19.92;12.93;;;;;;;;;;5014151;28;20228;-85
2021/09/07 02:34:00;;;;;;;17.20;12.90;;;;;;;;;;5014859;28;20085;-85
2021/09/07 02:36:27;;;;;;;17.95;12.52;;;;;;;;;;5024075;28;20080;-86
2021/09/07 02:38:54;;;;;;;20.35;11.65;;;;;;;;;;5015354;28;20104;-85
2021/09/07 02:41:21;;;;;;;16.85;13.07;;;;;;;;;;5014929;28;20133;-86
2021/09/07 02:43:48;;;;;;;17.25;12.30;;;;;;;;;;5016024;28;20076;-86
2021/09/07 02:46:15;;;;;;;15.93;12.13;;;;;;;;;;5015412;28;20050;-85
2021/09/07 02:48:43;;;;;;;16.48;12.48;;;;;;;;;;5014886;28;20507;-86
2021/09/07 02:51:11;;;;;;;17.63;13.30;;;;;;;;;;5013539;28;20046;-86
2021/09/07 02:53:37;;;;;;;18.92;13.32;;;;;;;;;;5014762;28;20062;-86
2021/09/07 02:56:05;;;;;;;18.02;12.65;;;;;;;;;;5014577;28;20053;-85
2021/09/07 02:58:31;;;;;;;16.65;12.68;;;;;;;;;;5030952;28;20042;-86
2021/09/07 03:00:58;;;;;;;19.30;13.38;;;;;;;;;;5033726;28;20050;-85
2021/09/07 03:03:25;;;;;;;17.30;13.65;;;;;;;;;;4982480;28;1122810;-85
2021/09/07 03:05:53;;;;;;;16.98;12.75;;;;;;;;;;5015368;28;20054;-85
2021/09/07 03:08:20;;;;;;;17.23;12.30;;;;;;;;;;5015258;28;20456;-86
2021/09/07 03:10:47;;;;;;;19.52;13.15;;;;;;;;;;5014816;28;20046;-85
2021/09/07 03:13:13;;;;;;;15.90;12.43;;;;;;;;;;5015234;28;20163;-86
2021/09/07 03:15:41;;;;;;;15.38;12.02;;;;;;;;;;5014705;28;20101;-85
2021/09/07 03:18:08;;;;;;;16.58;12.23;;;;;;;;;;5014513;28;20422;-85
2021/09/07 03:20:35;;;;;;;18.05;13.48;;;;;;;;;;5014164;28;20100;-85
2021/09/07 03:23:03;;;;;;;16.75;12.70;;;;;;;;;;5015763;28;20054;-85
2021/09/07 03:25:30;;;;;;;15.55;11.85;;;;;;;;;;5016717;28;20050;-85
2021/09/07 03:27:57;;;;;;;16.95;13.10;;;;;;;;;;5019877;28;20050;-85
2021/09/07 03:30:24;;;;;;;14.95;11.82;;;;;;;;;;5015694;28;20072;-85
2021/09/07 03:32:51;;;;;;;18.55;12.38;;;;;;;;;;5016203;28;20071;-85
2021/09/07 03:35:18;;;;;;;15.70;11.55;;;;;;;;;;5016371;28;20708;-85
2021/09/07 03:37:45;;;;;;;17.15;12.85;;;;;;;;;;5016743;28;20084;-85
2021/09/07 03:40:14;;;;;;;17.33;12.60;;;;;;;;;;5015961;28;20042;-85
2021/09/07 03:42:42;;;;;;;15.27;11.97;;;;;;;;;;5016393;28;20054;-85
2021/09/07 03:45:12;;;;;;;18.05;12.90;;;;;;;;;;5016446;28;20291;-85
2021/09/07 03:47:38;;;;;;;16.13;12.75;;;;;;;;;;5026993;28;20060;-85
2021/09/07 03:50:06;;;;;;;21.98;13.43;;;;;;;;;;5032389;28;20129;-85
2021/09/07 03:52:33;;;;;;;15.95;11.52;;;;;;;;;;5032825;28;20104;-84
2021/09/07 03:55:00;;;;;;;15.35;12.32;;;;;;;;;;5031329;28;20109;-85
2021/09/07 03:57:28;;;;;;;16.15;12.52;;;;;;;;;;5018366;28;20042;-85
2021/09/07 03:59:56;;;;;;;17.27;13.55;;;;;;;;;;5017873;28;20046;-85
2021/09/07 04:02:23;;;;;;;19.05;13.65;;;;;;;;;;5017448;28;20105;-85
2021/09/07 04:04:50;;;;;;;17.60;12.40;;;;;;;;;;5017116;28;20104;-85
2021/09/07 04:07:17;;;;;;;18.42;12.35;;;;;;;;;;5016836;28;20491;-85
2021/09/07 04:09:43;;;;;;;16.73;12.68;;;;;;;;;;5016665;28;20050;-85
2021/09/07 04:12:10;;;;;;;16.52;12.70;;;;;;;;;;5018599;28;20077;-85
2021/09/07 04:14:39;;;;;;;20.13;13.05;;;;;;;;;;5018089;28;20074;-85
2021/09/07 04:17:06;;;;;;;18.35;12.40;;;;;;;;;;5018199;28;20046;-85
2021/09/07 04:19:33;;;;;;;17.17;11.63;;;;;;;;;;5017511;28;20057;-85
2021/09/07 04:21:59;;;;;;;18.65;12.52;;;;;;;;;;5017527;28;20046;-85
2021/09/07 04:24:26;;;;;;;14.27;11.02;;;;;;;;;;5017139;28;20041;-85
2021/09/07 04:26:54;;;;;;;16.10;11.85;;;;;;;;;;5017320;28;20050;-85
2021/09/07 04:29:21;;;;;;;16.08;12.18;;;;;;;;;;5019005;28;20046;-85
2021/09/07 04:31:49;;;;;;;17.48;12.00;;;;;;;;;;5019386;28;20056;-85
2021/09/07 04:34:16;;;;;;;17.27;12.57;;;;;;;;;;5021918;28;20046;-85
2021/09/07 04:36:43;;;;;;;15.52;11.73;;;;;;;;;;5019380;28;20077;-85
2021/09/07 04:39:10;;;;;;;17.17;11.95;;;;;;;;;;5027829;28;20050;-84
2021/09/07 04:41:37;;;;;;;18.40;12.65;;;;;;;;;;5026651;28;20077;-85
2021/09/07 04:44:04;;;;;;;17.30;12.13;;;;;;;;;;5023079;28;20050;-85
2021/09/07 04:46:31;;;;;;;21.13;12.57;;;;;;;;;;5016021;28;20050;-85
2021/09/07 04:48:59;;;;;;;17.27;11.95;;;;;;;;;;5014255;28;20507;-85
2021/09/07 04:51:26;;;;;;;17.45;12.32;;;;;;;;;;5015481;28;20483;-85
2021/09/07 04:53:56;;;;;;;18.20;11.27;;;;;;;;;;5014085;28;20460;-85
2021/09/07 04:56:22;;;;;;;23.83;18.48;;;;;;;;;;5014721;28;20351;-85
2021/09/07 04:58:49;;;;;;;26.65;15.40;;;;;;;;;;5014270;28;20042;-85
2021/09/07 05:01:16;;;;;;;17.92;13.80;;;;;;;;;;5013384;28;20078;-85
2021/09/07 05:03:43;;;;;;;21.55;14.65;;;;;;;;;;5060969;23;20049;-86
2021/09/07 05:06:15;;;;;;;22.52;15.38;;;;;;;;;;5045557;28;20079;-85
2021/09/07 05:08:42;;;;;;;22.42;15.38;;;;;;;;;;5042176;28;20080;-84
2021/09/07 05:11:08;;;;;;;20.50;15.25;;;;;;;;;;5039506;28;20050;-84
2021/09/07 05:13:41;;;;;;;18.65;12.70;;;;;;;;;;5040520;28;20049;-84
2021/09/07 05:16:08;;;;;;;17.85;13.82;;;;;;;;;;5043829;28;20049;-85
2021/09/07 05:18:37;;;;;;;17.83;12.35;;;;;;;;;;5043167;28;20050;-84
2021/09/07 05:21:06;;;;;;;17.00;12.00;;;;;;;;;;5045714;28;20107;-82
2021/09/07 05:23:35;;;;;;;19.80;13.43;;;;;;;;;;5046647;28;20072;-82
2021/09/07 05:26:02;;;;;;;18.95;12.65;;;;;;;;;;5045792;28;20046;-82
2021/09/07 05:28:28;;;;;;;21.88;12.98;;;;;;;;;;5044899;28;20072;-84
2021/09/07 05:31:01;;;;;;;19.80;12.80;;;;;;;;;;5043990;28;20049;-83
2021/09/07 05:33:28;;;;;;;19.77;13.93;;;;;;;;;;5042954;28;20112;-83
2021/09/07 05:35:58;;;;;;;16.83;12.43;;;;;;;;;;5040159;28;20085;-83
2021/09/07 05:38:27;;;;;;;23.55;13.13;;;;;;;;;;5040620;28;20046;-84
2021/09/07 05:41:01;;;;;;;20.67;16.33;;;;;;;;;;5042784;28;20056;-82
2021/09/07 05:43:33;;;;;;;21.17;15.38;;;;;;;;;;5042765;28;20085;-83
2021/09/07 05:46:00;;;;;;;20.85;14.55;;;;;;;;;;5046272;28;20049;-83
2021/09/07 05:48:26;;;;;;;22.60;13.70;;;;;;;;;;5043218;28;20135;-83
2021/09/07 05:50:56;;;;;;;22.08;12.73;;;;;;;;;;5041580;28;20388;-85
2021/09/07 05:53:22;;;;;;;21.95;12.70;;;;;;;;;;5041122;28;20046;-83
2021/09/07 05:55:54;;;;;;;21.17;13.20;;;;;;;;;;5043709;28;20449;-84
2021/09/07 05:58:23;;;;;;;24.10;13.45;;;;;;;;;;5045358;28;20072;-83
2021/09/07 06:00:50;;;;;;;19.17;12.30;;;;;;;;;;5045232;28;20088;-84
2021/09/07 06:03:17;;;;;;;18.63;12.20;;;;;;;;;;5046859;28;20053;-84
2021/09/07 06:05:46;;;;;;;17.50;11.20;;;;;;;;;;5046706;28;20050;-84
2021/09/07 06:08:13;;;;;;;21.92;14.32;;;;;;;;;;5045101;28;20129;-82
2021/09/07 06:10:39;;;;;;;23.13;15.88;;;;;;;;;;5043949;28;20483;-85
2021/09/07 06:13:09;;;;;;;19.95;12.57;;;;;;;;;;5042357;28;20049;-83
2021/09/07 06:15:41;;;;;;;16.92;11.75;;;;;;;;;;5043435;28;20050;-84
2021/09/07 06:18:08;;;;;;;19.42;13.63;;;;;;;;;;5042959;28;20061;-83
2021/09/07 06:20:43;;;;;;;23.02;15.30;;;;;;;;;;5042144;28;20491;-84
2021/09/07 06:23:10;;;;;;;22.60;14.38;;;;;;;;;;5042960;28;20045;-84
2021/09/07 06:25:37;;;;;;;17.05;11.77;;;;;;;;;;5042417;28;20057;-82
2021/09/07 06:28:04;;;;;;;21.40;13.30;;;;;;;;;;5042800;28;20096;-84
2021/09/07 06:30:31;;;;;;;21.63;13.30;;;;;;;;;;5042237;28;20045;-84
2021/09/07 06:32:59;;;;;;;21.90;16.65;;;;;;;;;;5040866;28;20049;-83
2021/09/07 06:35:26;;;;;;;24.08;17.13;;;;;;;;;;5041332;28;20046;-83
2021/09/07 06:37:54;;;;;;;24.15;16.00;;;;;;;;;;5041442;28;20068;-84
2021/09/07 06:40:20;;;;;;;24.23;14.18;;;;;;;;;;5041804;28;20050;-85
2021/09/07 06:42:47;;;;;;;29.95;16.73;;;;;;;;;;5041364;28;20445;-85
2021/09/07 06:45:14;;;;;;;23.02;14.32;;;;;;;;;;5042181;28;20046;-84
2021/09/07 06:47:41;;;;;;;19.67;13.23;;;;;;;;;;5040859;28;20052;-85
2021/09/07 06:50:11;;;;;;;21.48;13.55;;;;;;;;;;5041347;28;20576;-82
2021/09/07 06:52:38;;;;;;;20.23;13.60;;;;;;;;;;5039729;28;20084;-84
2021/09/07 06:55:06;;;;;;;20.77;15.60;;;;;;;;;;5040902;28;20053;-83
2021/09/07 06:57:33;;;;;;;25.77;13.93;;;;;;;;;;5041632;28;20297;-82
2021/09/07 06:59:59;;;;;;;22.73;12.98;;;;;;;;;;5041095;28;20045;-83
2021/09/07 07:02:26;;;;;;;22.90;12.40;;;;;;;;;;5040345;28;20041;-83
2021/09/07 07:04:53;;;;;;;18.67;11.52;;;;;;;;;;5039923;28;20419;-83
2021/09/07 07:07:21;;;;;;;18.75;13.82;;;;;;;;;;5037527;28;20477;-83
2021/09/07 07:09:47;;;;;;;20.40;13.52;;;;;;;;;;5039883;28;20111;-83
2021/09/07 07:12:18;;;;;;;21.52;15.27;;;;;;;;;;5038437;28;20122;-83
2021/09/07 07:14:48;;;;;;;21.17;14.93;;;;;;;;;;5039302;28;20049;-83
2021/09/07 07:17:16;;;;;;;20.58;14.38;;;;;;;;;;5037950;28;20083;-81
2021/09/07 07:19:54;;;;;;;23.75;16.83;;;;;;;;;;5037967;28;20133;-83
2021/09/07 07:22:28;;;;;;;22.42;15.40;;;;;;;;;;5038876;28;20522;-83
2021/09/07 07:25:01;;;;;;;18.60;13.13;;;;;;;;;;5038786;28;20073;-84
2021/09/07 07:27:29;;;;;;;19.58;14.18;;;;;;;;;;5038412;28;20613;-83
2021/09/07 07:30:05;;;;;;;24.08;16.20;;;;;;;;;;5038920;28;20060;-82
2021/09/07 07:32:45;;;;;;;20.80;14.55;;;;;;;;;;5039412;28;20053;-83
2021/09/07 07:35:16;;;;;;;20.88;13.82;;;;;;;;;;5047819;28;20124;-83
2021/09/07 07:37:44;;;;;;;18.55;13.00;;;;;;;;;;5057163;28;20092;-85
2021/09/07 07:40:12;;;;;;;20.73;14.13;;;;;;;;;;5056682;28;20045;-84
2021/09/07 07:42:39;;;;;;;23.30;15.15;;;;;;;;;;5057810;28;20057;-83
2021/09/07 07:45:06;;;;;;;25.30;14.95;;;;;;;;;;5056476;28;20033;-84
2021/09/07 07:47:33;;;;;;;25.88;15.07;;;;;;;;;;5037091;28;20119;-84
2021/09/07 07:50:00;;;;;;;22.33;15.07;;;;;;;;;;5039598;28;20139;-84
2021/09/07 07:52:26;;;;;;;23.27;15.35;;;;;;;;;;5044514;28;20049;-85
2021/09/07 07:54:54;;;;;;;23.30;13.57;;;;;;;;;;5041097;28;20118;-84
2021/09/07 07:57:21;;;;;;;22.85;13.48;;;;;;;;;;5038868;28;20105;-83
2021/09/07 07:59:48;;;;;;;24.08;15.93;;;;;;;;;;5038086;28;20045;-85
2021/09/07 08:02:15;;;;;;;18.40;13.65;;;;;;;;;;5039158;28;20049;-84
2021/09/07 08:04:41;;;;;;;19.35;13.05;;;;;;;;;;5039976;28;20045;-85
2021/09/07 08:07:09;;;;;;;20.27;12.13;;;;;;;;;;5039980;28;20046;-85
2021/09/07 08:09:35;;;;;;;20.48;14.20;;;;;;;;;;5040435;28;20132;-84
2021/09/07 08:12:04;;;;;;;15.77;11.55;;;;;;;;;;5039747;28;20483;-84
2021/09/07 08:14:31;;;;;;;16.27;11.68;;;;;;;;;;5042326;28;20077;-84
2021/09/07 08:16:58;;;;;;;17.38;12.23;;;;;;;;;;5043059;28;20045;-83
2021/09/07 08:19:24;;;;;;;17.95;11.68;;;;;;;;;;5043401;28;20045;-84
2021/09/07 08:21:51;;;;;;;17.75;11.88;;;;;;;;;;5042608;28;20083;-84
2021/09/07 08:24:18;;;;;;;14.38;11.15;;;;;;;;;;5042772;28;20054;-84
2021/09/07 08:26:45;;;;;;;14.30;10.57;;;;;;;;;;5042414;28;20045;-84
2021/09/07 08:29:13;;;;;;;12.90;9.77;;;;;;;;;;5042084;28;20368;-84
2021/09/07 08:31:40;;;;;;;18.35;12.35;;;;;;;;;;5040956;28;20105;-83
2021/09/07 08:34:07;;;;;;;14.98;11.32;;;;;;;;;;5041853;28;20608;-83
2021/09/07 08:36:33;;;;;;;13.52;10.55;;;;;;;;;;5041813;28;20050;-84
2021/09/07 08:39:00;;;;;;;13.95;9.90;;;;;;;;;;5041381;28;20065;-84
2021/09/07 08:41:27;;;;;;;16.75;11.43;;;;;;;;;;5041261;28;20049;-85
2021/09/07 08:43:54;;;;;;;14.35;11.07;;;;;;;;;;5040769;28;20049;-85
2021/09/07 08:46:22;;;;;;;13.38;10.05;;;;;;;;;;5042045;28;20049;-84
2021/09/07 08:48:49;;;;;;;13.38;9.85;;;;;;;;;;5044841;28;20127;-83
2021/09/07 08:51:17;;;;;;;13.43;9.73;;;;;;;;;;5052095;28;20080;-83
2021/09/07 08:53:44;;;;;;;13.77;9.55;;;;;;;;;;5042104;28;20100;-84
2021/09/07 08:56:11;;;;;;;17.05;11.05;;;;;;;;;;5038320;28;20065;-85
2021/09/07 08:58:38;;;;;;;12.52;9.77;;;;;;;;;;5037450;28;20192;-85
2021/09/07 09:01:15;;;;;;;16.20;10.63;;;;;;;;;;5036067;28;20053;-85
2021/09/07 09:03:45;;;;;;;14.38;10.05;;;;;;;;;;5036207;28;20046;-86
2021/09/07 09:06:12;;;;;;;12.65;9.85;;;;;;;;;;5035479;28;20179;-84
2021/09/07 09:08:42;;;;;;;14.60;10.65;;;;;;;;;;5035331;28;20091;-82
2021/09/07 09:11:14;;;;;;;16.03;11.03;;;;;;;;;;5036599;28;20056;-87
2021/09/07 09:13:45;;;;;;;13.60;9.23;;;;;;;;;;5035049;28;20105;-86
2021/09/07 09:16:13;;;;;;;14.65;9.90;;;;;;;;;;5040096;28;20107;-85
2021/09/07 09:18:41;;;;;;;13.38;9.20;;;;;;;;;;5039481;28;20076;-85
2021/09/07 09:21:27;;;;;;;17.05;11.65;;;;;;;;;;5040918;28;20072;-84
2021/09/07 09:24:18;;;;;;;15.25;10.60;;;;;;;;;;5020651;28;20073;-84
2021/09/07 09:27:03;;;;;;;15.38;10.02;;;;;;;;;;5021624;28;20053;-85
2021/09/07 09:29:32;;;;;;;12.60;9.10;;;;;;;;;;5021116;28;20053;-84
2021/09/07 09:32:01;;;;;;;16.35;9.48;;;;;;;;;;5023643;28;20029;-83
2021/09/07 09:34:28;;;;;;;14.18;9.40;;;;;;;;;;5026134;28;20042;-85
2021/09/07 09:36:59;;;;;;;12.05;9.20;;;;;;;;;;5021570;28;20057;-85
2021/09/07 09:39:43;;;;;;;11.68;9.10;;;;;;;;;;5022067;28;20049;-85
2021/09/07 09:42:13;;;;;;;14.52;9.05;;;;;;;;;;5021818;28;20054;-85
2021/09/07 09:44:40;;;;;;;;;;;;;;;;;;5022070;28;20050;-84
2021/09/07 09:47:07;;;;;;;12.65;9.07;;;;;;;;;;5024199;28;19922;-85
2021/09/07 09:49:34;;;;;;;11.68;8.52;;;;;;;;;;5024237;28;20591;-86
2021/09/07 09:52:07;;;;;;;10.85;8.60;;;;;;;;;;5023816;28;20046;-85
2021/09/07 09:54:34;;;;;;;14.25;10.27;;;;;;;;;;5023667;28;20041;-84
2021/09/07 09:57:05;;;;;;;14.27;10.25;;;;;;;;;;5022913;28;20112;-85
2021/09/07 09:59:32;;;;;;;;;;;;;;;;;;5022451;28;20042;-86
2021/09/07 10:02:00;;;;;;;11.45;8.88;;;;;;;;;;5026994;28;19925;-85
2021/09/07 10:04:27;;;;;;;13.40;9.13;;;;;;;;;;5042650;28;20491;-86
2021/09/07 10:06:54;;;;;;;12.35;8.73;;;;;;;;;;5042805;28;20049;-85
2021/09/07 10:09:25;;;;;;;14.60;9.88;;;;;;;;;;5040755;28;20049;-85
2021/09/07 10:11:57;;;;;;;13.15;9.20;;;;;;;;;;5041922;28;20045;-85
2021/09/07 10:14:34;;;;;;;13.35;9.02;;;;;;;;;;5028642;28;20057;-83
2021/09/07 10:17:26;;;;;;;13.07;9.00;;;;;;;;;;5021771;28;20046;-85
2021/09/07 10:20:02;;;;;;;13.68;9.13;;;;;;;;;;5020260;28;20098;-86
2021/09/07 10:25:49;;;;;;;14.88;9.13;;;;;;;;;;5027723;28;20057;-85
2021/09/07 10:28:44;;;;;;;15.27;10.07;;;;;;;;;;5027773;28;20100;-85
2021/09/07 10:31:16;;;;;;;15.15;10.32;;;;;;;;;;5015193;28;20045;-87
2021/09/07 10:33:45;;;;;;;15.30;10.02;;;;;;;;;;5017836;28;20096;-86
2021/09/07 10:36:17;;;;;;;14.98;11.32;;;;;;;;;;5017469;28;20651;-84
2021/09/07 10:38:47;;;;;;;14.65;10.23;;;;;;;;;;5017410;28;20297;-84
2021/09/07 10:41:49;;;;;;;15.50;9.47;;;;;;;;;;5016192;28;20069;-85
2021/09/07 10:44:27;;;;;;;14.75;9.45;;;;;;;;;;4955503;29;20285;-85
2021/09/07 10:47:23;;;;;;;15.05;9.00;;;;;;;;;;5008380;28;20128;-85
2021/09/07 10:49:53;;;;;;;12.30;9.65;;;;;;;;;;5014698;28;20112;-85
2021/09/07 10:52:36;;;;;;;;;;;;;;;;;;5015470;28;20045;-89
2021/09/07 10:55:18;;;;;;;10.73;8.70;;;;;;;;;;5014312;28;19925;-88
2021/09/07 10:58:31;;;;;;;12.70;10.45;;;;;;;;;;5014847;28;20049;-82
2021/09/07 11:01:33;;;;;;;17.70;11.73;;;;;;;;;;5019343;28;20077;-84
2021/09/07 11:04:31;;;;;;;14.55;9.95;;;;;;;;;;5033143;28;20457;-83
2021/09/07 11:06:59;;;;;;;14.93;9.50;;;;;;;;;;5036533;28;20061;-85
2021/09/07 11:09:52;;;;;;;17.13;12.55;;;;;;;;;;5041092;28;20045;-82
2021/09/07 11:12:27;;;;;;;15.27;10.32;;;;;;;;;;5039578;28;20056;-82
2021/09/07 11:15:07;;;;;;;12.00;9.90;;;;;;;;;;5038881;28;20049;-82
2021/09/07 11:17:34;;;;;;;;;;;;;;;;;;5038373;28;20042;-82
2021/09/07 11:20:03;;;;;;;12.90;9.82;;;;;;;;;;5039020;28;19921;-82
2021/09/07 11:22:32;;;;;;;12.93;10.55;;;;;;;;;;5039172;28;20080;-82
2021/09/07 11:25:03;;;;;;;13.68;9.95;;;;;;;;;;5038790;28;20119;-80
2021/09/07 11:27:48;;;;;;;11.82;9.57;;;;;;;;;;5038608;28;20057;-82
2021/09/07 11:30:28;;;;;;;12.90;9.27;;;;;;;;;;5038788;28;20548;-79
2021/09/07 11:32:56;;;;;;;13.25;9.93;;;;;;;;;;5039218;28;20501;-81
2021/09/07 11:35:26;;;;;;;13.65;10.35;;;;;;;;;;5038245;28;20128;-80
2021/09/07 11:37:57;;;;;;;11.02;9.25;;;;;;;;;;5039042;28;20072;-81
2021/09/07 11:40:24;;;;;;;14.85;9.00;;;;;;;;;;5039469;28;20383;-81
2021/09/07 11:42:52;;;;;;;12.32;9.55;;;;;;;;;;5041121;28;20050;-81
2021/09/07 11:45:20;;;;;;;15.10;10.25;;;;;;;;;;5040248;28;20048;-81
2021/09/07 11:47:48;;;;;;;13.30;9.68;;;;;;;;;;5040951;28;20041;-81
2021/09/07 11:50:17;;;;;;;12.55;9.68;;;;;;;;;;5040087;28;20084;-82
2021/09/07 11:52:46;;;;;;;11.05;8.75;;;;;;;;;;5041294;28;20069;-80
2021/09/07 11:55:43;;;;;;;12.18;9.75;;;;;;;;;;5042357;28;20052;-80
2021/09/07 11:58:11;;;;;;;12.68;8.55;;;;;;;;;;5053552;28;20064;-81
2021/09/07 12:00:38;;;;;;;12.38;8.85;;;;;;;;;;5047962;28;20045;-81
2021/09/07 12:03:17;;;;;;;11.70;9.43;;;;;;;;;;5040288;28;20542;-82
2021/09/07 12:05:57;;;;;;;13.38;8.60;;;;;;;;;;5039710;28;20077;-82
2021/09/07 12:08:35;;;;;;;12.43;8.55;;;;;;;;;;5041309;28;20081;-80
2021/09/07 12:11:02;;;;;;;14.13;9.50;;;;;;;;;;5040213;28;20046;-83
2021/09/07 12:13:31;;;;;;;15.75;10.15;;;;;;;;;;5039472;28;20758;-82
2021/09/07 12:15:58;;;;;;;12.93;9.68;;;;;;;;;;5039120;28;20088;-81
2021/09/07 12:18:33;;;;;;;10.57;8.23;;;;;;;;;;5045601;28;20051;-83
2021/09/07 12:21:22;;;;;;;11.90;9.38;;;;;;;;;;5046064;28;20395;-83
2021/09/07 12:23:49;;;;;;;11.63;9.10;;;;;;;;;;5042915;28;20310;-82
2021/09/07 12:26:16;;;;;;;11.88;9.50;;;;;;;;;;5042071;28;20049;-83
2021/09/07 12:28:44;;;;;;;11.32;8.70;;;;;;;;;;5042787;28;20041;-83
2021/09/07 12:31:16;;;;;;;11.40;8.38;;;;;;;;;;5042495;28;20053;-82
2021/09/07 12:33:48;;;;;;;11.60;8.77;;;;;;;;;;5041599;28;20045;-83
2021/09/07 12:36:15;;;;;;;11.88;8.60;;;;;;;;;;5041506;28;20060;-81
2021/09/07 12:38:42;;;;;;;9.60;8.05;;;;;;;;;;5042016;28;20084;-83
2021/09/07 12:41:11;;;;;;;10.85;9.27;;;;;;;;;;5041734;28;20060;-82
2021/09/07 12:43:41;;;;;;;10.85;9.05;;;;;;;;;;5041659;28;20092;-83
2021/09/07 12:46:10;;;;;;;10.82;8.73;;;;;;;;;;5040729;28;20052;-83
2021/09/07 12:48:40;;;;;;;13.05;9.55;;;;;;;;;;5036413;28;20073;-82
2021/09/07 12:51:10;;;;;;;14.25;10.48;;;;;;;;;;5035383;28;20057;-84
2021/09/07 12:53:39;;;;;;;;;;;;;;;;;;5036859;28;20153;-84
2021/09/07 12:56:07;;;;;;;11.68;9.07;;;;;;;;;;5036640;28;19921;-83
2021/09/07 12:58:36;;;;;;;10.70;8.35;;;;;;;;;;5036409;28;20530;-83
2021/09/07 13:01:05;;;;;;;11.67;8.70;;;;;;;;;;5036947;28;20559;-84
2021/09/07 13:03:31;;;;;;;10.57;8.75;;;;;;;;;;5037369;28;20103;-84
2021/09/07 13:05:58;;;;;;;12.18;9.25;;;;;;;;;;5037918;28;20041;-84
2021/09/07 13:08:26;;;;;;;11.52;9.85;;;;;;;;;;5036182;28;20045;-84
2021/09/07 13:10:53;;;;;;;11.65;9.75;;;;;;;;;;5036282;28;20088;-83
2021/09/07 13:13:20;;;;;;;14.18;9.48;;;;;;;;;;5037152;28;20100;-83
2021/09/07 13:15:47;;;;;;;10.60;8.57;;;;;;;;;;5036924;28;20092;-84
2021/09/07 13:18:13;;;;;;;12.30;9.45;;;;;;;;;;5036993;28;20049;-83
2021/09/07 13:20:40;;;;;;;13.02;9.43;;;;;;;;;;5035636;28;20486;-83
2021/09/07 13:23:07;;;;;;;11.88;9.20;;;;;;;;;;5035337;28;20081;-83
2021/09/07 13:25:35;;;;;;;11.98;9.38;;;;;;;;;;5035985;28;20466;-83
2021/09/07 13:28:01;;;;;;;11.30;8.73;;;;;;;;;;5035996;28;20077;-84
2021/09/07 13:30:30;;;;;;;11.30;8.55;;;;;;;;;;5036031;28;20079;-83
2021/09/07 13:32:57;;;;;;;12.63;8.73;;;;;;;;;;5035923;28;20128;-83
2021/09/07 13:35:23;;;;;;;11.55;9.05;;;;;;;;;;5035759;28;20072;-84
2021/09/07 13:37:50;;;;;;;12.35;9.43;;;;;;;;;;5035713;28;20502;-84
2021/09/07 13:40:17;;;;;;;11.77;9.32;;;;;;;;;;5034323;28;20494;-83
2021/09/07 13:42:45;;;;;;;14.05;10.38;;;;;;;;;;5036532;28;20048;-84
2021/09/07 13:45:12;;;;;;;11.93;9.60;;;;;;;;;;5030386;28;20041;-84
2021/09/07 13:47:39;;;;;;;10.27;9.02;;;;;;;;;;5016929;28;20512;-84
2021/09/07 13:50:06;;;;;;;10.63;8.80;;;;;;;;;;5016648;28;20042;-83
2021/09/07 13:52:36;;;;;;;11.23;9.48;;;;;;;;;;5015638;28;20074;-82
2021/09/07 13:55:02;;;;;;;11.70;8.15;;;;;;;;;;5016081;28;20056;-83
2021/09/07 13:57:29;;;;;;;11.02;8.35;;;;;;;;;;5016948;28;20065;-83
2021/09/07 13:59:57;;;;;;;9.45;8.20;;;;;;;;;;5015613;28;20069;-83
2021/09/07 14:02:24;;;;;;;11.98;8.88;;;;;;;;;;5023677;28;20045;-83
2021/09/07 14:04:51;;;;;;;10.57;7.93;;;;;;;;;;5038294;28;20041;-84
2021/09/07 14:07:18;;;;;;;12.60;7.53;;;;;;;;;;5039050;28;20471;-82
2021/09/07 14:09:45;;;;;;;10.52;8.13;;;;;;;;;;5038366;28;20053;-84
2021/09/07 14:12:12;;;;;;;9.55;8.23;;;;;;;;;;5038347;28;20049;-82
2021/09/07 14:14:38;;;;;;;9.90;8.32;;;;;;;;;;5038354;28;20498;-84
2021/09/07 14:17:07;;;;;;;10.48;8.27;;;;;;;;;;5038855;28;20049;-84
2021/09/07 14:19:39;;;;;;;12.23;8.38;;;;;;;;;;5039125;28;20069;-84
2021/09/07 14:22:06;;;;;;;12.50;7.85;;;;;;;;;;5038455;28;20470;-83
2021/09/07 14:24:33;;;;;;;10.77;8.35;;;;;;;;;;5038110;28;20469;-82
2021/09/07 14:27:00;;;;;;;10.00;7.90;;;;;;;;;;5038802;28;20129;-84
2021/09/07 14:29:27;;;;;;;10.85;7.80;;;;;;;;;;5040772;28;20100;-83
2021/09/07 14:31:53;;;;;;;11.82;8.10;;;;;;;;;;5035396;28;20104;-83
2021/09/07 14:34:21;;;;;;;15.23;8.55;;;;;;;;;;5037890;28;20080;-84
2021/09/07 14:36:48;;;;;;;9.57;8.05;;;;;;;;;;5036849;28;20105;-83
2021/09/07 14:39:15;;;;;;;10.50;7.80;;;;;;;;;;5039280;28;20069;-83